Time;durP1;ratioP1;P1;durP2;ratioP2;P2;SDS_P1;SDS_P2;PMS_P1;PMS_P2;Temp;Humidity;BMP_temperature;BMP_pressure;BME280_temperature;BME280_humidity;BME280_pressure;Samples;Min_cycle;Max_cycle;Signal;HPM_P1;HPM_P2
2022/04/14 00:01:30;;;;;;;79.93;28.63;;;22.30;48.60;;;;;;4915173;29;20111;-73
2022/04/14 00:03:55;;;;;;;71.97;27.42;;;22.20;48.60;;;;;;4900108;29;20028;-72
2022/04/14 00:06:21;;;;;;;68.90;28.00;;;22.20;48.60;;;;;;4916775;29;20048;-72
2022/04/14 00:08:47;;;;;;;69.15;28.17;;;22.20;48.60;;;;;;4915131;29;20036;-71
2022/04/14 00:11:13;;;;;;;67.85;26.52;;;22.20;48.50;;;;;;4916531;29;20366;-71
2022/04/14 00:13:38;;;;;;;70.05;27.90;;;22.20;48.50;;;;;;4916327;29;20030;-72
2022/04/14 00:16:05;;;;;;;83.13;28.35;;;22.20;48.60;;;;;;4916321;29;20485;-72
2022/04/14 00:18:30;;;;;;;65.85;26.77;;;22.20;48.60;;;;;;4915822;29;20043;-71
2022/04/14 00:20:56;;;;;;;70.45;26.23;;;22.20;48.50;;;;;;4916309;29;20028;-71
2022/04/14 00:23:22;;;;;;;67.75;26.25;;;22.30;48.50;;;;;;4916385;29;20028;-71
2022/04/14 00:25:48;;;;;;;72.05;27.67;;;22.20;48.50;;;;;;4916435;29;20066;-72
2022/04/14 00:28:13;;;;;;;64.57;26.48;;;22.20;48.40;;;;;;4914553;29;20064;-72
2022/04/14 00:30:39;;;;;;;66.90;26.30;;;22.20;48.40;;;;;;4915971;29;20034;-72
2022/04/14 00:33:05;;;;;;;59.15;25.88;;;22.20;48.60;;;;;;4916026;29;20497;-72
2022/04/14 00:35:31;;;;;;;64.68;25.48;;;22.20;48.60;;;;;;4914975;29;20099;-72
2022/04/14 00:37:56;;;;;;;61.67;25.27;;;22.20;48.60;;;;;;4913992;29;20032;-72
2022/04/14 00:40:22;;;;;;;61.30;24.92;;;22.20;48.50;;;;;;4914746;29;20128;-71
2022/04/14 00:42:48;;;;;;;59.05;24.80;;;22.20;48.50;;;;;;4915970;29;20032;-72
2022/04/14 00:45:14;;;;;;;64.35;24.48;;;22.20;48.50;;;;;;4914690;29;20539;-72
2022/04/14 00:47:40;;;;;;;59.50;24.42;;;22.20;48.60;;;;;;4914668;29;20056;-72
2022/04/14 00:50:06;;;;;;;57.50;24.90;;;22.20;48.60;;;;;;4915119;29;20108;-72
2022/04/14 00:52:31;;;;;;;54.90;24.73;;;22.20;48.60;;;;;;4914506;29;20132;-71
2022/04/14 00:54:57;;;;;;;56.42;23.75;;;22.20;48.60;;;;;;4914653;29;20036;-71
2022/04/14 00:57:23;;;;;;;56.83;24.48;;;22.20;48.50;;;;;;4898575;29;20063;-72
2022/04/14 00:59:49;;;;;;;64.13;25.05;;;22.20;48.60;;;;;;4914582;29;20024;-71
2022/04/14 01:02:15;;;;;;;58.03;23.45;;;22.20;48.70;;;;;;4914286;29;20071;-72
2022/04/14 01:04:41;;;;;;;55.40;23.45;;;22.20;48.70;;;;;;4914424;29;20035;-72
2022/04/14 01:07:08;;;;;;;55.50;24.20;;;22.20;48.60;;;;;;4915563;29;20306;-71
2022/04/14 01:09:36;;;;;;;57.83;23.85;;;22.20;48.70;;;;;;4914159;29;20505;-71
2022/04/14 01:12:03;;;;;;;60.83;24.02;;;22.20;48.60;;;;;;4914408;29;20071;-72
2022/04/14 01:14:30;;;;;;;53.00;22.70;;;22.20;48.70;;;;;;4915391;29;20032;-72
2022/04/14 01:16:59;;;;;;;57.17;22.67;;;22.20;48.90;;;;;;4915424;29;20028;-71
2022/04/14 01:19:25;;;;;;;49.25;23.42;;;22.20;48.70;;;;;;4915254;29;20032;-71
2022/04/14 01:22:15;;;;;;;52.42;22.60;;;22.20;48.60;;;;;;4915476;29;20067;-71
2022/04/14 01:24:41;;;;;;;61.25;23.33;;;22.20;48.60;;;;;;4915805;29;20366;-72
2022/04/14 01:27:07;;;;;;;53.80;23.38;;;22.20;48.50;;;;;;4913931;29;20047;-72
2022/04/14 01:29:34;;;;;;;48.33;21.88;;;22.20;48.60;;;;;;4915129;29;20032;-72
2022/04/14 01:32:03;;;;;;;53.60;22.92;;;22.20;48.80;;;;;;4915242;29;20086;-72
2022/04/14 01:34:31;;;;;;;44.95;21.63;;;22.20;49.00;;;;;;4914058;29;20245;-73
2022/04/14 01:37:00;;;;;;;49.72;21.40;;;22.20;48.80;;;;;;4915081;29;20382;-72
2022/04/14 01:39:26;;;;;;;47.05;21.20;;;22.20;49.10;;;;;;4914640;29;20469;-73
2022/04/14 01:41:52;;;;;;;53.50;22.08;;;22.20;48.90;;;;;;4913900;29;20032;-72
2022/04/14 01:44:18;;;;;;;46.17;20.73;;;22.20;48.80;;;;;;4915029;29;20024;-73
2022/04/14 01:46:44;;;;;;;52.08;21.85;;;22.20;48.90;;;;;;4913979;29;20560;-72
2022/04/14 01:49:10;;;;;;;52.25;21.30;;;22.20;49.00;;;;;;4912647;29;20405;-72
2022/04/14 01:51:37;;;;;;;44.83;20.48;;;22.20;49.10;;;;;;4914922;29;20028;-72
2022/04/14 01:54:03;;;;;;;47.42;21.52;;;22.20;49.00;;;;;;4914678;29;20033;-72
2022/04/14 01:56:29;;;;;;;49.42;21.50;;;22.20;49.30;;;;;;4914972;29;20481;-72
2022/04/14 01:58:55;;;;;;;48.25;21.52;;;22.20;49.10;;;;;;4914629;29;20035;-73
2022/04/14 02:01:21;;;;;;;48.25;20.52;;;22.20;49.20;;;;;;4913906;29;20040;-72
2022/04/14 02:03:48;;;;;;;44.20;21.10;;;22.20;49.20;;;;;;4898098;29;20042;-72
2022/04/14 02:06:14;;;;;;;46.80;20.15;;;22.20;49.80;;;;;;4913719;29;20406;-72
2022/04/14 02:08:40;;;;;;;45.95;20.95;;;22.20;49.30;;;;;;4897449;29;20051;-72
2022/04/14 02:11:06;;;;;;;45.40;20.42;;;22.20;49.20;;;;;;4914815;29;20063;-73
2022/04/14 02:13:33;;;;;;;43.47;20.23;;;22.20;49.30;;;;;;4913775;29;20032;-72
2022/04/14 02:16:00;;;;;;;44.58;20.05;;;22.20;49.50;;;;;;4913485;29;20036;-71
2022/04/14 02:18:26;;;;;;;47.40;20.05;;;22.20;49.40;;;;;;4914645;29;20059;-72
2022/04/14 02:20:52;;;;;;;39.38;19.55;;;22.20;49.70;;;;;;4913279;29;20066;-73
2022/04/14 02:23:18;;;;;;;42.85;19.85;;;22.20;49.70;;;;;;4897936;29;20044;-72
2022/04/14 02:25:44;;;;;;;43.10;19.63;;;22.20;49.70;;;;;;4915028;29;20119;-72
2022/04/14 02:28:10;;;;;;;47.20;20.42;;;22.20;49.90;;;;;;4913238;29;20067;-73
2022/04/14 02:30:35;;;;;;;44.78;19.30;;;22.20;49.70;;;;;;4913525;29;20101;-72
2022/04/14 02:33:02;;;;;;;39.47;18.98;;;22.20;50.30;;;;;;4914683;29;20028;-72
2022/04/14 02:35:28;;;;;;;41.42;19.33;;;22.20;49.80;;;;;;4914538;29;20033;-72
2022/04/14 02:37:56;;;;;;;38.67;18.52;;;22.20;49.80;;;;;;4913321;29;20036;-71
2022/04/14 02:40:24;;;;;;;46.80;19.42;;;22.20;50.00;;;;;;4914474;29;20066;-72
2022/04/14 02:42:54;;;;;;;39.35;18.58;;;22.20;50.40;;;;;;4913458;29;20047;-72
2022/04/14 02:45:24;;;;;;;37.60;18.92;;;22.20;50.00;;;;;;4913247;29;20404;-72
2022/04/14 02:47:51;;;;;;;44.58;19.27;;;22.20;50.00;;;;;;4914275;29;20036;-72
2022/04/14 02:50:19;;;;;;;38.75;18.27;;;22.20;49.80;;;;;;4929233;29;20082;-72
2022/04/14 02:52:45;;;;;;;35.65;17.17;;;22.20;49.90;;;;;;4931626;29;20035;-72
2022/04/14 02:55:11;;;;;;;41.67;18.60;;;22.20;49.80;;;;;;4930759;29;20032;-72
2022/04/14 02:57:36;;;;;;;40.53;18.92;;;22.20;49.80;;;;;;4916228;29;20078;-72
2022/04/14 03:00:05;;;;;;;35.40;17.00;;;22.20;50.00;;;;;;4932954;29;20089;-72
2022/04/14 03:02:30;;;;;;;37.72;17.77;;;22.20;49.90;;;;;;4935434;29;20467;-72
2022/04/14 03:04:56;;;;;;;37.00;18.08;;;22.20;49.80;;;;;;4936636;29;20035;-72
2022/04/14 03:07:22;;;;;;;40.15;19.27;;;22.20;49.70;;;;;;4936533;29;20068;-72
2022/04/14 03:09:48;;;;;;;36.72;17.88;;;22.20;50.20;;;;;;4935812;29;20043;-72
2022/04/14 03:12:13;;;;;;;35.85;17.50;;;22.20;50.00;;;;;;4935422;29;20031;-73
2022/04/14 03:14:39;;;;;;;36.95;17.30;;;22.20;50.00;;;;;;4935333;29;20126;-73
2022/04/14 03:17:05;;;;;;;37.20;17.73;;;22.20;50.00;;;;;;4936398;29;20494;-72
2022/04/14 03:19:31;;;;;;;35.88;18.13;;;22.20;50.10;;;;;;4935232;29;20055;-72
2022/04/14 03:21:58;;;;;;;36.63;17.75;;;22.20;50.10;;;;;;4935218;29;20107;-72
2022/04/14 03:24:24;;;;;;;37.40;17.05;;;22.20;50.00;;;;;;4935398;29;20110;-72
2022/04/14 03:26:50;;;;;;;37.33;17.42;;;22.20;50.10;;;;;;4935175;29;20032;-72
2022/04/14 03:29:16;;;;;;;36.20;16.25;;;22.20;49.90;;;;;;4936184;29;20484;-72
2022/04/14 03:31:42;;;;;;;39.08;18.33;;;22.20;50.10;;;;;;4934883;29;20032;-72
2022/04/14 03:34:07;;;;;;;35.25;16.83;;;22.20;50.00;;;;;;4936274;29;20485;-73
2022/04/14 03:36:33;;;;;;;35.15;16.40;;;22.20;49.90;;;;;;4935204;29;20031;-72
2022/04/14 03:38:59;;;;;;;33.33;16.80;;;22.20;50.00;;;;;;4936005;29;20027;-73
2022/04/14 03:41:24;;;;;;;34.13;15.73;;;22.20;50.00;;;;;;4934818;29;20079;-73
2022/04/14 03:43:50;;;;;;;34.33;17.13;;;22.20;50.00;;;;;;4934920;29;20020;-72
2022/04/14 03:46:18;;;;;;;36.15;16.60;;;22.20;50.00;;;;;;4936000;29;20512;-72
2022/04/14 03:48:44;;;;;;;37.80;16.55;;;22.20;50.20;;;;;;4935604;29;20047;-71
2022/04/14 03:51:10;;;;;;;32.75;16.02;;;22.20;50.00;;;;;;4935920;29;20031;-72
2022/04/14 03:53:36;;;;;;;34.47;17.08;;;22.20;50.40;;;;;;4935912;29;20082;-72
2022/04/14 03:56:02;;;;;;;33.13;16.17;;;22.20;50.10;;;;;;4935809;29;20481;-72
2022/04/14 03:58:27;;;;;;;30.45;15.75;;;22.20;50.10;;;;;;4935826;29;20039;-72
2022/04/14 04:01:18;;;;;;;34.13;16.00;;;22.20;50.10;;;;;;4940840;23;20043;31
2022/04/14 04:03:44;;;;;;;34.70;15.63;;;22.20;50.10;;;;;;4875881;29;20045;-73
2022/04/14 04:06:09;;;;;;;30.77;15.50;;;22.20;50.10;;;;;;4878364;29;20029;-73
2022/04/14 04:08:35;;;;;;;35.22;16.10;;;22.20;50.40;;;;;;4877593;29;20033;-73
2022/04/14 04:11:01;;;;;;;33.78;16.27;;;22.20;50.30;;;;;;4878527;29;20108;-73
2022/04/14 04:13:26;;;;;;;31.90;15.98;;;22.20;50.40;;;;;;4877755;29;20036;-72
2022/04/14 04:15:52;;;;;;;32.53;15.38;;;22.20;50.20;;;;;;4862662;29;20041;-71
2022/04/14 04:18:18;;;;;;;30.20;14.23;;;22.20;50.10;;;;;;4878371;29;20440;-72
2022/04/14 04:20:43;;;;;;;30.42;15.25;;;22.20;50.10;;;;;;4877579;29;20116;-73
2022/04/14 04:23:09;;;;;;;29.85;15.05;;;22.20;50.10;;;;;;4878765;29;20064;-72
2022/04/14 04:25:35;;;;;;;34.85;15.50;;;22.20;50.20;;;;;;4878780;29;20037;-72
2022/04/14 04:28:00;;;;;;;32.95;15.23;;;22.20;50.30;;;;;;4878422;29;20036;-73
2022/04/14 04:30:26;;;;;;;33.72;15.70;;;22.20;50.30;;;;;;4878630;29;20025;-73
2022/04/14 04:32:52;;;;;;;28.73;15.52;;;22.20;50.30;;;;;;4878407;29;20174;-74
2022/04/14 04:35:17;;;;;;;33.08;15.23;;;22.20;50.20;;;;;;4892912;29;20025;-75
2022/04/14 04:37:43;;;;;;;29.48;14.50;;;22.20;50.20;;;;;;4877921;29;20406;-74
2022/04/14 04:40:09;;;;;;;30.17;14.32;;;22.20;50.20;;;;;;4878630;29;20499;-74
2022/04/14 04:42:35;;;;;;;26.10;13.85;;;22.20;50.10;;;;;;4878459;29;20402;-75
2022/04/14 04:45:01;;;;;;;29.38;13.98;;;22.20;50.10;;;;;;4877288;29;20047;-74
2022/04/14 04:47:27;;;;;;;26.13;12.80;;;22.20;50.10;;;;;;4878036;29;20037;-74
2022/04/14 04:49:52;;;;;;;31.63;14.45;;;22.20;50.10;;;;;;4878509;29;20377;-74
2022/04/14 04:52:18;;;;;;;26.25;13.57;;;22.20;50.10;;;;;;4878190;29;20173;-73
2022/04/14 04:54:44;;;;;;;30.60;15.27;;;22.20;50.10;;;;;;4878417;29;20033;-73
2022/04/14 04:57:09;;;;;;;29.73;14.55;;;22.20;50.10;;;;;;4876713;29;20044;-73
2022/04/14 04:59:35;;;;;;;27.33;13.52;;;22.20;50.20;;;;;;4877009;29;20025;-73
2022/04/14 05:02:01;;;;;;;27.20;13.20;;;22.20;50.10;;;;;;4878130;29;20033;-73
2022/04/14 05:04:27;;;;;;;26.52;14.23;;;22.20;50.10;;;;;;4878106;29;20029;-73
2022/04/14 05:06:52;;;;;;;25.80;13.20;;;22.10;50.10;;;;;;4878421;29;20066;-73
2022/04/14 05:09:18;;;;;;;28.63;13.57;;;22.20;50.00;;;;;;4861276;29;20039;-73
2022/04/14 05:11:44;;;;;;;27.50;13.52;;;22.10;50.10;;;;;;4877772;29;20394;-73
2022/04/14 05:14:10;;;;;;;26.20;13.75;;;22.10;50.00;;;;;;4877900;29;20032;-73
2022/04/14 05:16:36;;;;;;;26.60;13.23;;;22.20;50.10;;;;;;4877898;29;20048;-72
2022/04/14 05:19:01;;;;;;;27.63;12.77;;;22.20;50.10;;;;;;4876225;29;20036;-73
2022/04/14 05:21:27;;;;;;;27.70;12.90;;;22.10;50.00;;;;;;4877900;29;20100;-73
2022/04/14 05:23:53;;;;;;;27.40;13.40;;;22.10;50.10;;;;;;4876736;29;20044;-73
2022/04/14 05:26:19;;;;;;;27.48;12.93;;;22.10;50.20;;;;;;4876481;29;20064;-73
2022/04/14 05:28:44;;;;;;;26.08;13.43;;;22.20;50.10;;;;;;4877432;29;20435;-73
2022/04/14 05:31:10;;;;;;;23.88;12.57;;;22.20;50.00;;;;;;4877723;29;20085;-73
2022/04/14 05:33:36;;;;;;;25.63;12.07;;;22.20;50.10;;;;;;4876383;29;20047;-73
2022/04/14 05:36:02;;;;;;;24.95;12.80;;;22.20;50.10;;;;;;4877398;29;20025;-73
2022/04/14 05:38:27;;;;;;;26.15;13.30;;;22.20;50.10;;;;;;4860695;29;20128;-73
2022/04/14 05:40:54;;;;;;;26.80;12.27;;;22.20;49.80;;;;;;4877469;29;20028;-73
2022/04/14 05:43:22;;;;;;;26.20;13.43;;;22.20;49.90;;;;;;4877809;29;20402;-73
2022/04/14 05:45:56;;;;;;;24.05;12.13;;;22.20;49.80;;;;;;4876324;29;20033;-73
2022/04/14 05:48:22;;;;;;;24.42;12.05;;;22.20;50.40;;;;;;4860418;29;20045;-73
2022/04/14 05:50:49;;;;;;;25.83;13.45;;;22.20;49.90;;;;;;4877514;29;20112;-73
2022/04/14 05:53:22;;;;;;;23.23;12.45;;;22.20;50.70;;;;;;4876068;29;20037;-73
2022/04/14 05:55:47;;;;;;;25.90;12.35;;;22.20;50.20;;;;;;4877210;29;20036;-73
2022/04/14 05:58:13;;;;;;;27.67;12.75;;;22.20;50.30;;;;;;4875634;29;20036;-73
2022/04/14 06:00:40;;;;;;;27.45;12.52;;;22.20;50.40;;;;;;4877639;29;20061;-73
2022/04/14 06:03:05;;;;;;;24.33;12.82;;;22.20;50.20;;;;;;4877448;29;20402;-74
2022/04/14 06:05:32;;;;;;;22.88;12.00;;;22.20;50.30;;;;;;4877402;29;20030;-73
2022/04/14 06:07:59;;;;;;;22.23;11.57;;;22.20;50.30;;;;;;4891041;29;20041;-73
2022/04/14 06:10:26;;;;;;;22.00;11.55;;;22.20;50.20;;;;;;4876266;29;20037;-74
2022/04/14 06:12:54;;;;;;;25.45;12.57;;;22.20;50.40;;;;;;4875966;29;20518;-73
2022/04/14 06:15:20;;;;;;;21.50;10.77;;;22.20;50.40;;;;;;4877177;29;20039;-74
2022/04/14 06:17:46;;;;;;;22.85;12.02;;;22.20;50.30;;;;;;4875600;29;20025;-74
2022/04/14 06:20:13;;;;;;;23.30;11.35;;;22.10;50.30;;;;;;4877110;29;20040;-73
2022/04/14 06:22:42;;;;;;;22.35;12.55;;;22.20;50.40;;;;;;4891582;29;20044;-74
2022/04/14 06:25:16;;;;;;;;;;;22.20;50.50;;;;;;4877683;29;20044;-74
2022/04/14 06:27:46;;;;;;;21.52;11.13;;;22.20;50.40;;;;;;4876991;29;19912;-74
2022/04/14 06:30:16;;;;;;;20.33;10.57;;;22.20;50.60;;;;;;4875955;29;20517;-74
2022/04/14 06:32:42;;;;;;;29.73;12.23;;;22.20;50.60;;;;;;4876908;29;20033;-74
2022/04/14 06:35:13;;;;;;;22.20;11.57;;;22.20;50.50;;;;;;4877888;29;20033;-73
2022/04/14 06:37:39;;;;;;;26.23;11.73;;;22.20;50.60;;;;;;4880526;29;20063;-73
2022/04/14 06:40:05;;;;;;;24.45;11.05;;;22.20;50.70;;;;;;4879318;29;20037;-74
2022/04/14 06:42:32;;;;;;;24.08;10.93;;;22.20;50.60;;;;;;4880496;29;20516;-73
2022/04/14 06:44:59;;;;;;;22.00;11.32;;;22.20;50.50;;;;;;4880641;29;20033;-73
2022/04/14 06:47:26;;;;;;;24.50;11.50;;;22.20;50.40;;;;;;4879158;29;20033;-73
2022/04/14 06:49:52;;;;;;;22.20;10.82;;;22.20;49.90;;;;;;4880597;29;20029;-73
2022/04/14 06:52:18;;;;;;;20.95;11.07;;;22.20;50.10;;;;;;4879344;29;20037;-73
2022/04/14 06:54:44;;;;;;;21.58;11.00;;;22.20;49.90;;;;;;4879092;29;20506;-73
2022/04/14 06:57:09;;;;;;;21.20;10.73;;;22.20;51.10;;;;;;4880114;29;20029;-73
2022/04/14 06:59:35;;;;;;;23.80;11.23;;;22.20;50.50;;;;;;4880290;29;20022;-74
2022/04/14 07:02:01;;;;;;;21.90;11.55;;;22.20;51.10;;;;;;4880182;29;20104;-73
2022/04/14 07:04:27;;;;;;;20.35;10.65;;;22.30;51.50;;;;;;4880306;29;20040;-73
2022/04/14 07:06:53;;;;;;;20.63;11.10;;;22.20;50.40;;;;;;4879032;29;20127;-73
2022/04/14 07:09:20;;;;;;;24.20;11.40;;;22.30;51.00;;;;;;4879847;29;20188;-73
2022/04/14 07:11:45;;;;;;;20.67;11.13;;;22.20;50.90;;;;;;4879052;29;20497;-74
2022/04/14 07:14:11;;;;;;;24.42;11.80;;;22.20;51.60;;;;;;4878974;29;20033;-72
2022/04/14 07:16:37;;;;;;;20.63;10.95;;;22.30;51.30;;;;;;4880219;29;20061;-72
2022/04/14 07:19:02;;;;;;;21.33;10.48;;;22.30;51.00;;;;;;4879561;29;20036;-72
2022/04/14 07:21:28;;;;;;;21.70;10.80;;;22.20;50.50;;;;;;4879802;29;20028;-73
2022/04/14 07:23:54;;;;;;;20.63;10.80;;;22.20;50.30;;;;;;4878659;29;20036;-72
2022/04/14 07:26:19;;;;;;;21.95;10.15;;;22.20;50.30;;;;;;4878573;29;20036;-72
2022/04/14 07:28:45;;;;;;;23.60;11.05;;;22.20;50.30;;;;;;4878128;29;20083;-72
2022/04/14 07:31:11;;;;;;;22.23;9.88;;;22.20;50.20;;;;;;4878581;29;20033;-72
2022/04/14 07:33:36;;;;;;;23.42;10.93;;;22.20;50.20;;;;;;4879509;29;20088;-72
2022/04/14 07:36:03;;;;;;;23.42;10.73;;;22.20;50.20;;;;;;4879850;29;20029;-73
2022/04/14 07:38:28;;;;;;;21.95;10.95;;;22.20;50.20;;;;;;4877879;29;20501;-72
2022/04/14 07:40:56;;;;;;;18.55;10.30;;;22.20;50.20;;;;;;4878248;29;20032;-72
2022/04/14 07:43:22;;;;;;;19.63;10.40;;;22.20;50.10;;;;;;4879739;29;20041;-72
2022/04/14 07:45:48;;;;;;;20.08;10.57;;;22.20;50.20;;;;;;4878150;29;20112;-72
2022/04/14 07:48:16;;;;;;;20.63;10.38;;;22.20;50.10;;;;;;4879113;29;20116;-72
2022/04/14 07:50:42;;;;;;;19.60;10.15;;;22.20;50.10;;;;;;4878427;29;20112;-72
2022/04/14 07:53:08;;;;;;;22.33;10.77;;;22.20;50.20;;;;;;4879361;29;20104;-72
2022/04/14 07:55:35;;;;;;;23.33;10.57;;;22.20;50.10;;;;;;4878106;29;20482;-74
2022/04/14 07:58:05;;;;;;;22.98;10.23;;;22.30;51.90;;;;;;4877868;29;20410;-74
2022/04/14 08:00:31;;;;;;;24.33;11.82;;;22.30;52.50;;;;;;4878043;29;20033;-74
2022/04/14 08:02:59;;;;;;;24.80;11.35;;;22.40;52.00;;;;;;4879292;29;20040;-73
2022/04/14 08:05:37;;;;;;;22.95;11.20;;;22.40;52.60;;;;;;4878165;29;20045;-73
2022/04/14 08:08:11;;;;;;;27.50;11.73;;;22.40;53.30;;;;;;4878794;29;20041;-71
2022/04/14 08:10:37;;;;;;;21.40;10.50;;;22.40;52.70;;;;;;4847202;29;20509;-71
2022/04/14 08:13:03;;;;;;;21.50;9.90;;;22.50;51.70;;;;;;4877683;29;20124;-69
2022/04/14 08:15:30;;;;;;;20.77;9.32;;;22.40;51.10;;;;;;4862534;29;20494;-68
2022/04/14 08:17:57;;;;;;;17.67;8.52;;;22.40;52.20;;;;;;4878600;29;20025;-68
2022/04/14 08:20:23;;;;;;;21.33;8.85;;;22.30;51.90;;;;;;4879055;29;20031;-69
2022/04/14 08:22:59;;;;;;;31.38;21.13;;;22.30;52.00;;;;;;4877354;29;20032;-69
2022/04/14 08:25:30;;;;;;;40.33;29.98;;;22.20;50.80;;;;;;4877528;29;20037;-69
2022/04/14 08:28:00;;;;;;;41.25;25.63;;;22.20;51.40;;;;;;4877343;29;20135;-69
2022/04/14 08:30:28;;;;;;;37.03;22.38;;;22.20;50.90;;;;;;4877781;29;20052;-70
2022/04/14 08:32:55;;;;;;;33.03;21.45;;;22.20;50.70;;;;;;4878470;29;20181;-70
2022/04/14 08:35:21;;;;;;;27.88;16.92;;;22.20;50.40;;;;;;4878603;29;20478;-70
2022/04/14 08:37:48;;;;;;;24.75;15.05;;;22.20;50.30;;;;;;4878432;29;20108;-69
2022/04/14 08:40:16;;;;;;;24.55;14.85;;;22.20;49.70;;;;;;4862097;29;20032;-69
2022/04/14 08:43:02;;;;;;;26.30;15.40;;;22.20;50.50;;;;;;4876722;29;20028;-70
2022/04/14 08:45:31;;;;;;;27.88;17.85;;;22.20;50.30;;;;;;4872643;29;20036;-69
2022/04/14 08:47:59;;;;;;;49.17;24.70;;;22.20;50.40;;;;;;4876551;29;20069;-75
2022/04/14 08:50:26;;;;;;;40.83;24.17;;;22.20;50.40;;;;;;4878228;29;20040;-75
2022/04/14 08:52:52;;;;;;;40.38;24.98;;;22.20;50.50;;;;;;4860877;29;20120;-76
2022/04/14 08:55:18;;;;;;;39.80;23.63;;;22.20;50.50;;;;;;4877182;29;20025;-76
2022/04/14 08:57:44;;;;;;;39.80;24.42;;;22.20;50.10;;;;;;4859610;29;20032;-78
2022/04/14 09:00:12;;;;;;;39.13;23.13;;;22.30;50.20;;;;;;4877190;29;20025;-77
2022/04/14 09:02:39;;;;;;;33.75;21.90;;;22.30;50.20;;;;;;4876785;29;20037;-76
2022/04/14 09:05:06;;;;;;;33.25;21.33;;;22.30;50.30;;;;;;4873184;29;20076;-76
2022/04/14 09:07:33;;;;;;;33.90;21.60;;;22.40;50.90;;;;;;4859249;29;20033;-76
2022/04/14 09:09:59;;;;;;;36.50;21.98;;;22.40;50.70;;;;;;4858471;29;20112;-75
2022/04/14 09:12:25;;;;;;;35.50;21.27;;;22.30;50.40;;;;;;4858116;29;20121;-76
2022/04/14 09:14:51;;;;;;;32.63;21.55;;;22.30;50.30;;;;;;4856926;29;20271;-75
2022/04/14 09:17:17;;;;;;;32.80;20.98;;;22.30;50.40;;;;;;4872899;29;20109;-75
2022/04/14 09:19:42;;;;;;;29.70;20.13;;;22.30;50.50;;;;;;4859466;29;20022;-75
2022/04/14 09:22:10;;;;;;;37.38;20.98;;;22.30;50.40;;;;;;4858871;29;20032;-74
2022/04/14 09:24:42;;;;;;;33.45;21.23;;;22.30;50.50;;;;;;4859233;29;20201;-76
2022/04/14 09:27:09;;;;;;;30.67;20.75;;;22.30;50.40;;;;;;4858246;29;20097;-76
2022/04/14 09:29:47;;;;;;;33.17;20.98;;;22.30;50.40;;;;;;4858089;29;20120;-76
2022/04/14 09:32:55;;;;;;;31.05;19.10;;;22.30;50.50;;;;;;4842408;29;20128;-76
2022/04/14 09:35:31;;;;;;;26.85;19.00;;;22.30;50.50;;;;;;4854770;29;20038;-76
2022/04/14 09:38:06;;;;;;;29.95;19.58;;;22.30;50.50;;;;;;4858931;29;20074;-76
2022/04/14 09:40:33;;;;;;;31.30;19.80;;;22.30;50.70;;;;;;4857848;29;20040;-76
2022/04/14 09:43:00;;;;;;;28.65;18.65;;;22.30;50.50;;;;;;4858911;29;20440;-76
2022/04/14 09:45:30;;;;;;;32.47;18.88;;;22.30;50.50;;;;;;4842743;29;20036;-76
2022/04/14 09:48:01;;;;;;;27.60;18.60;;;22.30;50.50;;;;;;4857353;29;20037;-76
2022/04/14 09:50:36;;;;;;;28.42;19.05;;;22.30;50.50;;;;;;4858975;29;20026;-76
2022/04/14 09:53:07;;;;;;;32.20;19.35;;;22.30;50.50;;;;;;4842237;29;20041;-76
2022/04/14 09:55:34;;;;;;;29.02;19.02;;;22.30;50.50;;;;;;4857786;29;20040;-76
2022/04/14 09:58:16;;;;;;;29.42;17.70;;;22.30;50.60;;;;;;4842231;29;20040;-76
2022/04/14 10:00:50;;;;;;;29.67;19.27;;;22.30;50.60;;;;;;4858034;29;20030;-78
2022/04/14 10:03:17;;;;;;;29.52;18.98;;;22.30;50.70;;;;;;4950721;23;20055;-71
2022/04/14 10:05:54;;;;;;;29.48;18.05;;;22.30;50.60;;;;;;4941501;29;20107;-70
2022/04/14 10:08:23;;;;;;;28.55;18.02;;;22.30;50.60;;;;;;4932448;29;20034;-70
2022/04/14 10:11:02;;;;;;;28.30;17.40;;;22.30;50.60;;;;;;4935787;29;20038;-70
2022/04/14 10:13:37;;;;;;;25.83;17.50;;;22.30;50.60;;;;;;4918768;29;20493;-70
2022/04/14 10:16:03;;;;;;;26.90;17.10;;;22.30;50.50;;;;;;4918599;29;20035;-70
2022/04/14 10:18:31;;;;;;;24.33;17.10;;;22.30;50.60;;;;;;4918106;29;20028;-70
2022/04/14 10:20:57;;;;;;;27.52;17.77;;;22.30;50.60;;;;;;4917496;29;20044;-70
2022/04/14 10:23:26;;;;;;;25.40;16.83;;;22.30;50.60;;;;;;4917671;29;20032;-70
2022/04/14 10:25:53;;;;;;;26.58;16.40;;;22.30;50.60;;;;;;4917112;29;20067;-70
2022/04/14 10:28:20;;;;;;;24.63;16.60;;;22.30;51.20;;;;;;4918224;29;20523;-70
2022/04/14 10:30:58;;;;;;;24.30;16.13;;;22.30;50.60;;;;;;4917407;29;20040;-70
2022/04/14 10:33:24;;;;;;;23.63;16.27;;;22.30;50.60;;;;;;4917231;29;20400;-70
2022/04/14 10:35:51;;;;;;;28.35;17.45;;;22.30;50.60;;;;;;4918587;29;20062;-70
2022/04/14 10:38:24;;;;;;;26.73;17.38;;;22.30;50.60;;;;;;4918204;29;20028;-70
2022/04/14 10:40:58;;;;;;;25.27;15.15;;;22.30;50.50;;;;;;4918489;29;20024;-70
2022/04/14 10:43:24;;;;;;;22.63;15.77;;;22.30;50.60;;;;;;4917314;29;20400;-70
2022/04/14 10:45:55;;;;;;;23.83;16.27;;;22.30;50.50;;;;;;4918474;29;20036;-70
2022/04/14 10:48:35;;;;;;;23.35;16.17;;;22.30;50.50;;;;;;4918049;29;20043;-70
2022/04/14 10:51:18;;;;;;;;;;;22.30;50.50;;;;;;4917484;29;20043;-70
2022/04/14 10:53:48;;;;;;;23.55;15.75;;;22.30;50.50;;;;;;4901294;29;19957;-70
2022/04/14 10:56:33;;;;;;;24.17;15.70;;;22.30;50.60;;;;;;4916867;29;20489;-70
2022/04/14 10:59:03;;;;;;;23.58;15.43;;;22.30;50.60;;;;;;4916850;29;20028;-70
2022/04/14 11:01:50;;;;;;;23.70;15.98;;;22.30;50.60;;;;;;4918092;29;20393;-70
2022/04/14 11:04:50;;;;;;;21.88;14.52;;;22.20;50.60;;;;;;4917965;29;20024;-70
2022/04/14 11:07:23;;;;;;;22.38;14.85;;;22.30;50.60;;;;;;4900798;29;20058;-71
2022/04/14 11:09:58;;;;;;;21.83;15.45;;;22.30;50.60;;;;;;4917740;29;20039;-70
2022/04/14 11:12:37;;;;;;;23.10;15.85;;;22.30;50.60;;;;;;4932420;29;20060;-70
2022/04/14 11:15:08;;;;;;;22.88;14.63;;;22.20;50.50;;;;;;4916464;29;20493;-70
2022/04/14 11:20:13;;;;;;;24.70;14.85;;;22.30;50.60;;;;;;4932457;29;20032;-70
2022/04/14 11:23:07;;;;;;;23.05;14.95;;;22.30;50.60;;;;;;4917079;29;20454;-71
2022/04/14 11:25:39;;;;;;;20.92;14.60;;;22.20;50.50;;;;;;4917541;29;20123;-70
2022/04/14 11:28:17;;;;;;;23.77;15.32;;;22.30;50.70;;;;;;4917176;29;20047;-70
2022/04/14 11:30:43;;;;;;;22.40;14.45;;;22.20;50.60;;;;;;4916305;29;20029;-70
2022/04/14 11:33:14;;;;;;;25.13;14.88;;;22.20;50.50;;;;;;4916231;29;20032;-70
2022/04/14 11:35:47;;;;;;;22.42;14.35;;;22.20;50.60;;;;;;4900647;29;20488;-70
2022/04/14 11:38:54;;;;;;;20.83;14.23;;;22.20;50.60;;;;;;4915808;29;20035;-70
2022/04/14 11:41:37;;;;;;;23.52;14.27;;;22.20;50.60;;;;;;4915955;29;20180;-70
2022/04/14 11:44:12;;;;;;;20.23;13.68;;;22.20;50.60;;;;;;4917290;29;20430;-70
2022/04/14 11:46:46;;;;;;;20.45;14.10;;;22.20;50.60;;;;;;4917308;29;20032;-70
2022/04/14 11:49:14;;;;;;;21.83;13.88;;;22.20;50.60;;;;;;4916860;29;20436;-70
2022/04/14 11:51:50;;;;;;;22.27;14.10;;;22.20;50.70;;;;;;4916782;29;20485;-70
2022/04/14 11:54:29;;;;;;;20.23;12.85;;;22.20;50.70;;;;;;4931610;29;20505;-70
2022/04/14 11:57:19;;;;;;;20.08;14.30;;;22.20;50.70;;;;;;4915773;29;20048;-70
2022/04/14 11:59:46;;;;;;;;;;;22.20;50.60;;;;;;4917333;29;20036;-70
2022/04/14 12:02:22;;;;;;;19.90;13.25;;;22.20;50.60;;;;;;4917013;29;20288;-70
2022/04/14 12:04:49;;;;;;;21.38;13.52;;;22.20;50.70;;;;;;4915751;29;20040;-70
2022/04/14 12:07:16;;;;;;;19.23;13.65;;;22.20;50.70;;;;;;4916434;29;20500;-70
2022/04/14 12:09:42;;;;;;;19.13;12.63;;;22.20;50.60;;;;;;4915514;29;20243;-70
2022/04/14 12:12:08;;;;;;;18.33;12.32;;;22.20;50.60;;;;;;4915414;29;20024;-70
2022/04/14 12:14:34;;;;;;;20.30;13.45;;;22.20;50.70;;;;;;4916429;29;20028;-70
2022/04/14 12:17:00;;;;;;;19.95;12.85;;;22.20;50.60;;;;;;4915349;29;20028;-69
2022/04/14 12:19:40;;;;;;;21.27;13.23;;;22.20;50.70;;;;;;4915483;29;20513;-70
2022/04/14 12:22:05;;;;;;;;;;;22.20;50.70;;;;;;4917048;29;20051;-70
2022/04/14 12:24:31;;;;;;;19.65;12.70;;;22.20;50.60;;;;;;4915421;29;19911;-70
2022/04/14 12:26:58;;;;;;;19.17;13.15;;;22.20;50.60;;;;;;4899661;29;20047;-70
2022/04/14 12:29:24;;;;;;;19.98;12.73;;;22.20;50.60;;;;;;4916075;29;20044;-70
2022/04/14 12:31:55;;;;;;;20.42;13.02;;;22.20;50.60;;;;;;4899213;29;20032;-70
2022/04/14 12:34:22;;;;;;;18.00;12.65;;;22.20;50.60;;;;;;4914315;29;20051;-70
2022/04/14 12:36:48;;;;;;;18.30;12.30;;;22.20;50.60;;;;;;4916265;29;20107;-70